Time;durP1;ratioP1;P1;durP2;ratioP2;P2;SDS_P1;SDS_P2;PMS_P1;PMS_P2;Temp;Humidity;BMP_temperature;BMP_pressure;BME280_temperature;BME280_humidity;BME280_pressure;Samples;Min_cycle;Max_cycle;Signal;HPM_P1;HPM_P2
2023/11/21 00:01:11;;;;;;;7.90;6.10;;;;;;;7.22;100.00;95717.48;107254;1271;137714;-87
2023/11/21 00:03:40;;;;;;;10.90;6.80;;;;;;;7.23;100.00;95714.70;107390;1272;22638;-87
2023/11/21 00:06:09;;;;;;;8.10;5.00;;;;;;;7.23;100.00;95712.64;107270;1271;138515;-87
2023/11/21 00:08:36;;;;;;;6.50;4.40;;;;;;;7.23;100.00;95715.54;110167;1276;22548;-88
2023/11/21 00:11:05;;;;;;;5.10;3.50;;;;;;;7.21;100.00;95715.23;110098;1271;22436;-88
2023/11/21 00:13:32;;;;;;;6.10;4.50;;;;;;;7.21;100.00;95721.48;110151;1273;137619;-87
2023/11/21 00:15:58;;;;;;;5.00;4.20;;;;;;;7.22;100.00;95720.14;107527;1272;22544;-88
2023/11/21 00:18:24;;;;;;;8.80;6.20;;;;;;;7.22;100.00;95723.31;107098;1272;138672;-88
2023/11/21 00:20:51;;;;;;;8.00;4.90;;;;;;;7.21;100.00;95729.20;107237;1270;22645;-87
2023/11/21 00:23:18;;;;;;;7.20;3.90;;;;;;;7.21;100.00;95733.45;107176;1271;22660;-87
2023/11/21 00:25:44;;;;;;;4.20;3.70;;;;;;;7.21;100.00;95736.46;110104;1264;137979;-88
2023/11/21 00:28:10;;;;;;;6.30;3.30;;;;;;;7.22;100.00;95741.30;109991;1260;23586;-87
2023/11/21 00:30:35;;;;;;;7.80;4.00;;;;;;;7.20;100.00;95745.32;107066;1272;138483;-88
2023/11/21 00:33:01;;;;;;;6.50;4.70;;;;;;;7.20;100.00;95745.71;107209;1276;24280;-87
2023/11/21 00:35:28;;;;;;;7.90;5.90;;;;;;;7.20;100.00;95749.27;107160;1273;22647;-87
2023/11/21 00:37:54;;;;;;;9.30;6.10;;;;;;;7.20;100.00;95749.30;107154;1271;137625;-87
2023/11/21 00:40:20;;;;;;;8.40;7.60;;;;;;;7.21;100.00;95750.61;107230;1272;22599;-87
2023/11/21 00:42:47;;;;;;;7.90;6.90;;;;;;;7.20;100.00;95753.39;107096;1271;138636;-87
2023/11/21 00:45:13;;;;;;;11.10;7.90;;;;;;;7.19;100.00;95750.92;107226;1277;22608;-87
2023/11/21 00:47:39;;;;;;;9.60;8.30;;;;;;;7.19;100.00;95752.81;107125;1271;25598;-87
2023/11/21 00:50:06;;;;;;;9.00;7.50;;;;;;;7.21;100.00;95747.31;107113;1272;138000;-87
2023/11/21 00:52:32;;;;;;;6.80;5.00;;;;;;;7.19;100.00;95745.43;107199;1270;22742;-87
2023/11/21 00:55:02;;;;;;;7.00;5.70;;;;;;;7.15;100.00;95739.35;107148;1271;153268;-87
2023/11/21 00:57:29;;;;;;;7.00;4.60;;;;;;;7.14;100.00;95741.86;107136;1271;22667;-87
2023/11/21 00:59:55;;;;;;;6.40;4.70;;;;;;;7.13;100.00;95740.10;107140;1271;138730;-87
2023/11/21 01:02:21;;;;;;;8.90;4.10;;;;;;;7.12;100.00;95736.43;107256;1271;22558;-86
2023/11/21 01:04:48;;;;;;;5.40;3.90;;;;;;;7.11;100.00;95736.06;107354;1270;22530;-87
2023/11/21 01:07:14;;;;;;;5.20;3.30;;;;;;;7.09;100.00;95734.08;107175;1270;137996;-87
2023/11/21 01:09:40;;;;;;;5.80;3.70;;;;;;;7.07;100.00;95734.82;107273;1271;22803;-88
2023/11/21 01:12:06;;;;;;;5.00;3.30;;;;;;;7.06;100.00;95736.86;107023;1270;139294;-87
2023/11/21 01:14:33;;;;;;;6.10;4.20;;;;;;;7.02;100.00;95733.87;107294;1269;22590;-87
2023/11/21 01:16:58;;;;;;;5.20;3.50;;;;;;;7.00;100.00;95734.40;107219;1271;22541;-87
2023/11/21 01:19:24;;;;;;;4.90;3.30;;;;;;;7.00;100.00;95734.08;107163;1267;137984;-87
2023/11/21 01:21:52;;;;;;;5.60;3.50;;;;;;;6.97;100.00;95738.19;107173;1271;22536;-86
2023/11/21 01:24:19;;;;;;;5.10;3.40;;;;;;;6.97;100.00;95735.63;107179;1270;138656;-87
2023/11/21 01:26:46;;;;;;;5.00;3.20;;;;;;;6.96;100.00;95736.80;107251;1274;24375;-87
2023/11/21 01:29:12;;;;;;;5.70;3.30;;;;;;;6.94;100.00;95741.64;107074;1271;23271;-88
2023/11/21 01:31:38;;;;;;;5.00;3.40;;;;;;;6.92;100.00;95749.27;107179;1271;137716;-86
2023/11/21 01:34:04;;;;;;;4.00;3.50;;;;;;;6.90;100.00;95757.27;107222;1271;22531;-86
2023/11/21 01:36:32;;;;;;;7.20;4.50;;;;;;;6.87;100.00;95762.91;107174;1270;138617;-87
2023/11/21 01:39:01;;;;;;;8.40;4.90;;;;;;;6.86;100.00;95758.17;107245;1270;22553;-87
2023/11/21 01:41:28;;;;;;;5.80;4.60;;;;;;;6.85;100.00;95756.40;107194;1274;22547;-86
2023/11/21 01:43:58;;;;;;;7.30;5.30;;;;;;;6.84;100.00;95761.04;107171;1271;137800;-87
2023/11/21 01:46:24;;;;;;;5.40;4.10;;;;;;;6.82;100.00;95760.84;107279;1276;22563;-87
2023/11/21 01:48:50;;;;;;;7.30;5.20;;;;;;;6.82;100.00;95759.02;107181;1274;137811;-87
2023/11/21 01:51:16;;;;;;;9.70;6.00;;;;;;;6.81;100.00;95761.52;107248;1278;26209;-87
2023/11/21 01:53:42;;;;;;;5.70;5.10;;;;;;;6.81;100.00;95760.02;107226;1270;22537;-88
2023/11/21 01:56:09;;;;;;;7.60;4.50;;;;;;;6.84;100.00;95762.77;107155;1271;139206;-87
2023/11/21 01:58:35;;;;;;;6.20;4.30;;;;;;;6.84;100.00;95759.58;107224;1270;25417;-87
2023/11/21 02:01:02;;;;;;;5.30;3.70;;;;;;;6.85;100.00;95756.45;107166;1270;137845;-87
2023/11/21 02:03:28;;;;;;;5.70;3.50;;;;;;;6.83;100.00;95752.86;107236;1271;22654;-87
2023/11/21 02:05:54;;;;;;;5.80;3.50;;;;;;;6.81;100.00;95755.29;107160;1271;25041;-87
2023/11/21 02:08:20;;;;;;;6.40;5.00;;;;;;;6.79;100.00;95753.55;107253;1271;24259;-87
2023/11/21 02:10:47;;;;;;;5.80;3.40;;;;;;;6.78;100.00;95752.04;107270;1273;22646;-86
2023/11/21 02:13:14;;;;;;;6.20;4.10;;;;;;;6.78;100.00;95750.16;107084;1271;137783;-87
2023/11/21 02:15:42;;;;;;;5.40;4.00;;;;;;;6.78;100.00;95751.70;107313;1270;24267;-87
2023/11/21 02:18:11;;;;;;;3.80;3.30;;;;;;;6.78;100.00;95753.39;107212;1270;138405;-87
2023/11/21 02:20:38;;;;;;;6.70;3.50;;;;;;;6.78;100.00;95756.67;107170;1276;25435;-87
2023/11/21 02:23:05;;;;;;;4.50;3.70;;;;;;;6.77;100.00;95753.55;107201;1271;22689;-88
2023/11/21 02:25:32;;;;;;;7.90;3.50;;;;;;;6.77;100.00;95757.66;107124;1271;137705;-88
2023/11/21 02:28:00;;;;;;;5.10;3.60;;;;;;;6.78;100.00;95752.39;107249;1277;25264;-88
2023/11/21 02:30:27;;;;;;;4.90;3.70;;;;;;;6.79;100.00;95752.99;110154;1271;138423;-88
2023/11/21 02:32:54;;;;;;;7.00;4.80;;;;;;;6.80;100.00;95749.98;110320;1277;23589;-88
2023/11/21 02:35:23;;;;;;;5.10;3.50;;;;;;;6.80;100.00;95750.63;110269;1276;23358;-88
2023/11/21 02:37:49;;;;;;;4.60;3.70;;;;;;;6.82;100.00;95750.94;110099;1277;138766;-87
2023/11/21 02:40:20;;;;;;;10.30;4.00;;;;;;;6.84;100.00;95752.10;109841;1270;25483;-87
2023/11/21 02:42:47;;;;;;;5.70;3.80;;;;;;;6.86;100.00;95755.08;107028;1271;138757;-87
2023/11/21 02:45:16;;;;;;;6.60;4.20;;;;;;;6.87;100.00;95755.81;107160;1271;156856;-88
2023/11/21 02:47:45;;;;;;;4.40;3.90;;;;;;;6.88;100.00;95758.80;107257;1271;25455;-87
2023/11/21 02:50:11;;;;;;;6.20;3.90;;;;;;;6.88;100.00;95761.93;107158;1278;138233;-87
2023/11/21 02:52:37;;;;;;;6.60;3.50;;;;;;;6.88;100.00;95764.55;107180;1270;25346;-87
2023/11/21 02:55:04;;;;;;;4.50;3.80;;;;;;;6.87;100.00;95765.10;107120;1271;137794;-87
2023/11/21 02:57:30;;;;;;;4.40;4.00;;;;;;;6.88;100.00;95767.39;107275;1271;25438;-88
2023/11/21 02:59:56;;;;;;;4.40;3.40;;;;;;;6.89;100.00;95768.35;107118;1270;138360;-87
2023/11/21 03:02:22;;;;;;;5.10;3.60;;;;;;;6.89;100.00;95764.96;107171;1270;23336;-87
2023/11/21 03:04:49;;;;;;;4.10;3.40;;;;;;;6.87;100.00;95766.56;107201;1270;23905;-87
2023/11/21 03:07:16;;;;;;;5.50;3.40;;;;;;;6.86;100.00;95762.73;107193;1271;137581;-86
2023/11/21 03:09:41;;;;;;;5.40;3.50;;;;;;;6.85;100.00;95766.81;107252;1271;22549;-88
2023/11/21 03:12:09;;;;;;;3.90;3.10;;;;;;;6.83;100.00;95766.94;107160;1271;138326;-87
2023/11/21 03:14:35;;;;;;;4.80;3.70;;;;;;;6.82;100.00;95762.58;107141;1271;25397;-88
2023/11/21 03:17:02;;;;;;;6.30;3.20;;;;;;;6.82;100.00;95765.39;107265;1266;24734;-87
2023/11/21 03:19:28;;;;;;;4.90;3.60;;;;;;;6.81;100.00;95763.75;107189;1270;138592;-87
2023/11/21 03:21:54;;;;;;;4.70;3.00;;;;;;;6.81;100.00;95767.52;107221;1271;22678;-88
2023/11/21 03:24:22;;;;;;;5.30;3.30;;;;;;;6.82;100.00;95765.19;107118;1271;137997;-87
2023/11/21 03:26:48;;;;;;;5.00;3.20;;;;;;;6.84;100.00;95768.98;107179;1271;26631;-87
2023/11/21 03:29:14;;;;;;;4.40;3.40;;;;;;;6.85;100.00;95766.29;107084;1271;22549;-87
2023/11/21 03:31:40;;;;;;;5.30;3.30;;;;;;;6.84;100.00;95766.33;107112;1277;137667;-87
2023/11/21 03:34:06;;;;;;;4.80;4.20;;;;;;;6.85;100.00;95763.67;107222;1270;22596;-88
2023/11/21 03:36:33;;;;;;;5.10;4.10;;;;;;;6.86;100.00;95764.28;107086;1272;137831;-88
2023/11/21 03:38:58;;;;;;;4.50;3.10;;;;;;;6.86;100.00;95769.05;107211;1270;25337;-88
2023/11/21 03:41:25;;;;;;;6.20;3.30;;;;;;;6.86;100.00;95762.89;107256;1271;23527;-86
2023/11/21 03:43:51;;;;;;;4.50;2.90;;;;;;;6.87;100.00;95762.98;107230;1270;138518;-87
2023/11/21 03:46:17;;;;;;;5.70;2.90;;;;;;;6.87;100.00;95767.44;107259;1272;23383;-87
2023/11/21 03:48:43;;;;;;;5.10;3.20;;;;;;;6.85;100.00;95764.11;107215;1270;137759;-86
2023/11/21 03:51:09;;;;;;;3.70;3.00;;;;;;;6.84;100.00;95765.30;107249;1271;22548;-87
2023/11/21 03:53:35;;;;;;;3.70;3.00;;;;;;;6.82;100.00;95768.85;107302;1271;24246;-88
2023/11/21 03:56:05;;;;;;;4.10;3.40;;;;;;;6.80;100.00;95762.85;107070;1271;137829;-87
2023/11/21 03:58:31;;;;;;;7.90;5.10;;;;;;;6.79;100.00;95762.93;107288;1255;22544;-87
2023/11/21 04:00:57;;;;;;;4.50;3.10;;;;;;;6.80;100.00;95759.44;107136;1271;137890;-87
2023/11/21 04:03:23;;;;;;;6.90;4.10;;;;;;;6.79;100.00;95759.31;107267;1271;22765;-87
2023/11/21 04:05:50;;;;;;;5.20;3.70;;;;;;;6.78;100.00;95758.23;107284;1274;26666;-87
2023/11/21 04:08:16;;;;;;;4.10;3.30;;;;;;;6.78;100.00;95756.99;107120;1269;137929;-87
2023/11/21 04:10:42;;;;;;;5.20;3.40;;;;;;;6.79;100.00;95759.58;107256;1277;22652;-87
2023/11/21 04:13:10;;;;;;;5.40;3.80;;;;;;;6.79;100.00;95760.05;107151;1271;137968;-87
2023/11/21 04:15:37;;;;;;;5.70;4.00;;;;;;;6.79;100.00;95762.29;110272;1277;22204;-87
2023/11/21 04:18:03;;;;;;;5.00;3.70;;;;;;;6.80;100.00;95759.21;107454;1271;137853;-87
2023/11/21 04:20:28;;;;;;;5.10;3.70;;;;;;;6.82;100.00;95764.55;107162;1271;22604;-87
2023/11/21 04:22:55;;;;;;;5.70;3.70;;;;;;;6.82;100.00;95761.94;107245;1271;25345;-87
2023/11/21 04:25:22;;;;;;;3.90;3.30;;;;;;;6.83;100.00;95758.74;107028;1271;138007;-86
2023/11/21 04:27:48;;;;;;;6.50;4.00;;;;;;;6.82;100.00;95758.29;107257;1267;23958;-88
2023/11/21 04:30:15;;;;;;;4.90;4.00;;;;;;;6.82;100.00;95760.89;107011;1270;138239;-87
2023/11/21 04:32:41;;;;;;;6.00;4.10;;;;;;;6.81;100.00;95752.27;107128;1275;25464;-87
2023/11/21 04:35:11;;;;;;;6.70;4.20;;;;;;;6.77;100.00;95757.37;110151;1271;22362;-88
2023/11/21 04:37:37;;;;;;;8.10;4.10;;;;;;;6.75;100.00;95754.25;110180;1277;138471;-88
2023/11/21 04:40:06;;;;;;;5.80;4.20;;;;;;;6.76;100.00;95758.98;110308;1277;22941;-88
2023/11/21 04:42:38;;;;;;;8.60;4.80;;;;;;;6.78;100.00;95761.71;109728;1272;139067;-88
2023/11/21 04:45:08;;;;;;;6.60;4.10;;;;;;;6.79;100.00;95764.32;107061;1270;22603;-87
2023/11/21 04:47:35;;;;;;;6.30;3.70;;;;;;;6.81;100.00;95766.33;107220;1271;24237;-87
2023/11/21 04:50:03;;;;;;;6.20;3.40;;;;;;;6.79;100.00;95767.45;107145;1270;138575;-87
2023/11/21 04:52:29;;;;;;;5.30;3.70;;;;;;;6.78;100.00;95770.27;110309;1278;22983;-88
2023/11/21 04:54:57;;;;;;;5.00;3.30;;;;;;;6.77;100.00;95774.17;110107;1272;138661;-88
2023/11/21 04:57:23;;;;;;;5.20;3.50;;;;;;;6.76;100.00;95773.09;110178;1263;22170;-88
2023/11/21 04:59:49;;;;;;;5.60;3.50;;;;;;;6.75;100.00;95775.10;110311;1273;22280;-88
2023/11/21 05:02:15;;;;;;;4.40;3.20;;;;;;;6.75;100.00;95779.27;110078;1278;139177;-88
2023/11/21 05:04:42;;;;;;;5.80;3.50;;;;;;;6.77;100.00;95778.21;108803;1270;22604;-88
2023/11/21 05:07:08;;;;;;;5.60;3.60;;;;;;;6.77;100.00;95777.95;107118;1274;138110;-88
2023/11/21 05:09:35;;;;;;;7.30;4.50;;;;;;;6.78;100.00;95781.53;107281;1274;23915;-87
2023/11/21 05:12:01;;;;;;;5.00;4.10;;;;;;;6.79;100.00;95781.95;107093;1271;138447;-87
2023/11/21 05:14:27;;;;;;;4.20;3.10;;;;;;;6.79;100.00;95780.48;107184;1271;22535;-87
2023/11/21 05:16:54;;;;;;;3.30;2.90;;;;;;;6.78;100.00;95787.66;107217;1271;22747;-87
2023/11/21 05:19:21;;;;;;;5.70;3.60;;;;;;;6.77;100.00;95784.73;107159;1271;137770;-87
2023/11/21 05:21:47;;;;;;;4.30;3.10;;;;;;;6.76;100.00;95790.32;107243;1268;22544;-87
2023/11/21 05:24:13;;;;;;;8.30;5.60;;;;;;;6.76;100.00;95793.23;107050;1272;138346;-87
2023/11/21 05:26:39;;;;;;;19.30;13.40;;;;;;;6.76;100.00;95791.95;107238;1271;23224;-87
2023/11/21 05:29:05;;;;;;;12.20;6.60;;;;;;;6.75;100.00;95799.92;107235;1270;22625;-87
2023/11/21 05:31:31;;;;;;;35.20;15.30;;;;;;;6.74;100.00;95806.06;107059;1270;137945;-87
2023/11/21 05:33:57;;;;;;;303.50;148.30;;;;;;;6.73;100.00;95805.37;107215;1272;24200;-87
2023/11/21 05:36:23;;;;;;;259.00;118.10;;;;;;;6.72;100.00;95808.02;107160;1270;139416;-87
2023/11/21 05:38:49;;;;;;;143.10;59.50;;;;;;;6.71;100.00;95805.34;107200;1270;22540;-87
2023/11/21 05:41:15;;;;;;;159.00;60.50;;;;;;;6.71;100.00;95810.86;107156;1271;25295;-87
2023/11/21 05:43:41;;;;;;;97.50;37.70;;;;;;;6.71;100.00;95809.67;107122;1270;138575;-87
2023/11/21 05:46:08;;;;;;;85.60;31.30;;;;;;;6.72;100.00;95817.18;107175;1272;22542;-87
2023/11/21 05:48:36;;;;;;;64.10;22.80;;;;;;;6.70;100.00;95818.52;107083;1272;138900;-87
2023/11/21 05:51:08;;;;;;;31.80;14.20;;;;;;;6.70;100.00;95821.04;107173;1271;23534;-87
2023/11/21 05:53:34;;;;;;;27.40;10.80;;;;;;;6.68;100.00;95820.67;107296;1272;23673;-87
2023/11/21 05:56:00;;;;;;;42.90;16.40;;;;;;;6.67;100.00;95819.39;107011;1273;139205;-87
2023/11/21 05:58:26;;;;;;;100.80;35.00;;;;;;;6.66;100.00;95821.55;107297;1271;22537;-87
2023/11/21 06:00:52;;;;;;;84.00;27.30;;;;;;;6.66;100.00;95824.04;107080;1274;138207;-88
2023/11/21 06:03:19;;;;;;;133.60;42.70;;;;;;;6.67;100.00;95828.40;107211;1274;26639;-87
2023/11/21 06:05:45;;;;;;;44.50;17.20;;;;;;;6.68;100.00;95826.61;107137;1273;23913;-87
2023/11/21 06:08:11;;;;;;;177.20;56.00;;;;;;;6.66;100.00;95828.77;107151;1271;139339;-87
2023/11/21 06:10:37;;;;;;;88.10;29.20;;;;;;;6.66;100.00;95832.60;107154;1274;22610;-87
2023/11/21 06:13:03;;;;;;;93.20;31.50;;;;;;;6.67;100.00;95830.28;107250;1270;137971;-87
2023/11/21 06:15:29;;;;;;;22.80;15.50;;;;;;;6.67;100.00;95836.25;107215;1272;22575;-87
2023/11/21 06:17:56;;;;;;;16.60;11.40;;;;;;;6.66;100.00;95838.46;107200;1272;138743;-86
2023/11/21 06:20:22;;;;;;;37.80;16.90;;;;;;;6.65;100.00;95847.20;107264;1274;22668;-87
2023/11/21 06:22:49;;;;;;;117.20;43.80;;;;;;;6.66;100.00;95852.21;106995;1275;25303;-87
2023/11/21 06:25:15;;;;;;;43.70;26.90;;;;;;;6.67;100.00;95856.94;107065;1276;138459;-87
2023/11/21 06:27:44;;;;;;;46.20;21.10;;;;;;;6.67;100.00;95859.02;107207;1272;23013;-87
2023/11/21 06:30:11;;;;;;;68.30;26.40;;;;;;;6.65;100.00;95864.55;109516;1272;138599;-88
2023/11/21 06:32:38;;;;;;;107.20;38.30;;;;;;;6.66;100.00;95863.23;107159;1273;24244;-87
2023/11/21 06:35:05;;;;;;;97.80;36.60;;;;;;;6.68;100.00;95861.81;107186;1268;22575;-87
2023/11/21 06:37:31;;;;;;;101.00;35.10;;;;;;;6.71;100.00;95864.95;106936;1272;138634;-87
2023/11/21 06:39:58;;;;;;;71.20;29.00;;;;;;;6.73;100.00;95870.95;107253;1274;23273;-87
2023/11/21 06:42:27;;;;;;;77.90;30.80;;;;;;;6.74;100.00;95872.52;107093;1273;138234;-87
2023/11/21 06:44:53;;;;;;;69.80;26.50;;;;;;;6.74;100.00;95876.10;107274;1274;26693;-87
2023/11/21 06:47:26;;;;;;;51.60;22.70;;;;;;;6.73;100.00;95878.30;107108;1277;22533;-87
2023/11/21 06:49:52;;;;;;;18.10;11.30;;;;;;;6.71;100.00;95878.31;106946;1275;138369;-86
2023/11/21 06:52:19;;;;;;;19.30;14.10;;;;;;;6.70;100.00;95881.70;107072;1276;22552;-87
2023/11/21 06:54:45;;;;;;;24.90;16.70;;;;;;;6.70;100.00;95880.36;106956;1273;138572;-87
2023/11/21 06:57:11;;;;;;;19.80;14.80;;;;;;;6.70;100.00;95884.81;107245;1256;25529;-87
2023/11/21 06:59:37;;;;;;;42.30;25.30;;;;;;;6.70;100.00;95887.74;107138;1274;23003;-86
2023/11/21 07:02:06;;;;;;;30.10;19.00;;;;;;;6.70;100.00;95884.33;107135;1274;138575;-87
2023/11/21 07:04:33;;;;;;;24.80;17.20;;;;;;;6.70;100.00;95888.49;107257;1274;25407;-87
2023/11/21 07:06:59;;;;;;;17.60;14.40;;;;;;;6.69;100.00;95886.48;110116;1270;138704;-88
2023/11/21 07:09:25;;;;;;;24.20;16.40;;;;;;;6.69;100.00;95888.44;110161;1277;22186;-88
2023/11/21 07:11:52;;;;;;;64.40;32.20;;;;;;;6.70;100.00;95892.36;110242;1277;22306;-88
2023/11/21 07:14:19;;;;;;;59.80;31.00;;;;;;;6.74;100.00;95892.14;110106;1277;138098;-88
2023/11/21 07:16:45;;;;;;;30.80;17.70;;;;;;;6.77;100.00;95893.63;109148;1277;22533;-87
2023/11/21 07:19:12;;;;;;;63.00;29.50;;;;;;;6.79;100.00;95896.91;107221;1272;137986;-87
2023/11/21 07:21:39;;;;;;;29.60;16.50;;;;;;;6.81;100.00;95894.73;107119;1274;24078;-89
2023/11/21 07:24:06;;;;;;;65.90;30.70;;;;;;;6.82;100.00;95892.60;107225;1270;138130;-87
2023/11/21 07:26:33;;;;;;;33.80;18.20;;;;;;;6.83;100.00;95894.40;107316;1271;25284;-87
2023/11/21 07:29:00;;;;;;;35.80;18.20;;;;;;;6.83;100.00;95895.54;107088;1272;25400;-88
2023/11/21 07:31:26;;;;;;;81.40;38.10;;;;;;;6.85;100.00;95895.83;107805;1272;138743;-87
2023/11/21 07:33:52;;;;;;;89.70;43.20;;;;;;;6.88;100.00;95899.72;107093;1272;22531;-87
2023/11/21 07:36:21;;;;;;;70.40;35.90;;;;;;;6.88;100.00;95894.68;107072;1270;138833;-86
2023/11/21 07:38:48;;;;;;;44.60;25.10;;;;;;;6.89;100.00;95894.86;107165;1271;24191;-87
2023/11/21 07:41:17;;;;;;;38.10;23.50;;;;;;;6.90;100.00;95896.30;107220;1271;22534;-87
2023/11/21 07:43:46;;;;;;;27.70;18.60;;;;;;;6.91;100.00;95894.66;107080;1270;138598;-87
2023/11/21 07:46:12;;;;;;;19.20;15.10;;;;;;;6.93;100.00;95892.73;107277;1271;24268;-87
2023/11/21 07:48:39;;;;;;;13.60;12.10;;;;;;;6.96;100.00;95893.48;107105;1274;138567;-87
2023/11/21 07:51:06;;;;;;;12.80;10.20;;;;;;;6.98;100.00;95895.13;107238;1270;23052;-87
2023/11/21 07:53:32;;;;;;;12.10;9.70;;;;;;;6.99;100.00;95896.89;107227;1270;25323;-87
2023/11/21 07:56:08;;;;;;;10.70;8.40;;;;;;;7.00;100.00;95901.48;107039;1272;137865;-87
2023/11/21 07:58:35;;;;;;;11.10;7.80;;;;;;;7.00;100.00;95898.54;107157;1267;22603;-87
2023/11/21 08:01:02;;;;;;;8.70;7.50;;;;;;;7.02;100.00;95900.90;107128;1274;137833;-87
2023/11/21 08:03:29;;;;;;;7.50;6.20;;;;;;;7.05;100.00;95901.97;107212;1272;22537;-87
2023/11/21 08:05:57;;;;;;;7.40;6.00;;;;;;;7.05;100.00;95900.52;107218;1271;138661;-87
2023/11/21 08:08:23;;;;;;;7.30;5.30;;;;;;;7.06;100.00;95898.15;107248;1274;22549;-87
2023/11/21 08:10:56;;;;;;;9.80;5.80;;;;;;;7.07;100.00;95899.08;107203;1272;24263;-88
2023/11/21 08:13:23;;;;;;;8.50;6.10;;;;;;;7.10;100.00;95902.61;110196;1272;137865;-88
2023/11/21 08:15:49;;;;;;;7.40;4.70;;;;;;;7.12;100.00;95900.04;110106;1277;23116;-88
2023/11/21 08:18:17;;;;;;;5.40;4.70;;;;;;;7.16;100.00;95902.39;108051;1276;139263;-87
2023/11/21 08:20:47;;;;;;;6.00;4.30;;;;;;;7.20;100.00;95905.88;107279;1270;25485;-87
2023/11/21 08:23:16;;;;;;;7.20;5.60;;;;;;;7.25;100.00;95903.44;107248;1274;25366;-87
2023/11/21 08:25:44;;;;;;;7.40;4.90;;;;;;;7.30;100.00;95907.85;107120;1270;137768;-87
2023/11/21 08:28:10;;;;;;;6.00;4.70;;;;;;;7.34;100.00;95906.83;107198;1274;25255;-87
2023/11/21 08:30:36;;;;;;;7.00;5.00;;;;;;;7.38;100.00;95911.34;107196;1274;137787;-87
2023/11/21 08:33:03;;;;;;;12.60;10.10;;;;;;;7.38;100.00;95912.98;107034;1276;28464;-87
2023/11/21 08:35:30;;;;;;;11.80;8.10;;;;;;;7.39;100.00;95916.65;107389;1270;24329;-87
2023/11/21 08:37:56;;;;;;;8.80;5.60;;;;;;;7.41;100.00;95918.83;110159;1275;138498;-87
2023/11/21 08:40:23;;;;;;;9.80;5.60;;;;;;;7.42;100.00;95918.17;110271;1270;22326;-88
2023/11/21 08:42:51;;;;;;;10.80;7.30;;;;;;;7.44;100.00;95917.13;110181;1266;138292;-88
2023/11/21 08:45:17;;;;;;;13.80;10.70;;;;;;;7.47;100.00;95919.36;109370;1277;23961;-88
2023/11/21 08:47:46;;;;;;;17.30;10.90;;;;;;;7.48;100.00;95919.29;107290;1274;25540;-87
2023/11/21 08:50:13;;;;;;;16.70;12.30;;;;;;;7.50;100.00;95919.58;109982;1277;140860;-87
2023/11/21 08:52:40;;;;;;;26.90;15.30;;;;;;;7.51;100.00;95923.87;110322;1270;22199;-88
2023/11/21 08:55:12;;;;;;;24.30;14.90;;;;;;;7.53;100.00;95918.20;110033;1277;138909;-88
2023/11/21 08:57:38;;;;;;;17.90;12.10;;;;;;;7.54;100.00;95921.40;110168;1277;22301;-86
2023/11/21 09:00:10;;;;;;;26.70;16.30;;;;;;;7.57;100.00;95926.60;109993;1272;139512;-86
2023/11/21 09:02:37;;;;;;;12.40;8.70;;;;;;;7.60;100.00;95922.40;108800;1271;22560;-85
2023/11/21 09:05:05;;;;;;;13.50;8.70;;;;;;;7.61;100.00;95925.08;107258;1270;22565;-86
2023/11/21 09:07:31;;;;;;;12.60;6.70;;;;;;;7.63;100.00;95920.73;107152;1277;137924;-86
2023/11/21 09:09:57;;;;;;;25.10;12.30;;;;;;;7.62;100.00;95921.44;107140;1272;22544;-86
2023/11/21 09:12:24;;;;;;;19.40;10.10;;;;;;;7.61;100.00;95922.16;107139;1272;138129;-86
2023/11/21 09:14:51;;;;;;;9.60;6.10;;;;;;;7.56;100.00;95922.98;107241;1276;26136;-86
2023/11/21 09:17:17;;;;;;;8.80;6.40;;;;;;;7.56;100.00;95924.09;107136;1274;22575;-86
2023/11/21 09:19:52;;;;;;;45.20;23.10;;;;;;;7.58;100.00;95924.04;107273;1273;138034;-86
2023/11/21 09:22:18;;;;;;;37.70;20.90;;;;;;;7.57;100.00;95924.82;107326;1274;22747;-86
2023/11/21 09:24:44;;;;;;;20.20;10.80;;;;;;;7.56;100.00;95923.73;107284;1276;137946;-86
2023/11/21 09:27:11;;;;;;;14.60;8.70;;;;;;;7.54;100.00;95927.40;107268;1272;22649;-86
2023/11/21 09:29:39;;;;;;;13.90;7.90;;;;;;;7.52;100.00;95922.21;107226;1273;22537;-86
2023/11/21 09:32:07;;;;;;;36.90;18.50;;;;;;;7.51;100.00;95931.21;107156;1275;137949;-86
2023/11/21 09:34:38;;;;;;;25.50;13.60;;;;;;;7.48;100.00;95926.02;107241;1269;22535;-86
2023/11/21 09:37:07;;;;;;;24.90;14.30;;;;;;;7.47;100.00;95929.41;107134;1271;137951;-86
2023/11/21 09:39:36;;;;;;;35.50;19.50;;;;;;;7.44;100.00;95931.60;107242;1274;22544;-87
2023/11/21 09:42:10;;;;;;;18.90;11.30;;;;;;;7.43;100.00;95934.33;107249;1268;138605;-86
2023/11/21 09:44:44;;;;;;;23.50;13.00;;;;;;;7.40;100.00;95939.17;107388;1277;22639;-86
2023/11/21 09:47:10;;;;;;;14.90;8.60;;;;;;;7.36;100.00;95939.59;110164;1278;22485;-86
2023/11/21 09:49:37;;;;;;;18.80;11.50;;;;;;;7.35;100.00;95936.30;108964;1277;138227;-86
2023/11/21 09:52:03;;;;;;;28.40;15.40;;;;;;;7.36;100.00;95933.74;107243;1274;22544;-87
2023/11/21 09:54:31;;;;;;;12.80;8.60;;;;;;;7.36;100.00;95933.39;107214;1276;139224;-86
2023/11/21 09:57:00;;;;;;;12.90;10.10;;;;;;;7.37;100.00;95932.31;109417;1275;24211;-87
2023/11/21 09:59:29;;;;;;;14.50;10.40;;;;;;;7.36;100.00;95932.52;107257;1269;23877;-87
2023/11/21 10:01:55;;;;;;;14.40;10.30;;;;;;;7.37;100.00;95933.31;107128;1272;138113;-86
2023/11/21 10:04:21;;;;;;;48.00;19.80;;;;;;;7.38;100.00;95932.27;107277;1269;22645;-87
2023/11/21 10:06:47;;;;;;;27.20;17.20;;;;;;;7.39;100.00;95934.10;107214;1277;138472;-87
2023/11/21 10:09:13;;;;;;;16.80;10.60;;;;;;;7.38;100.00;95931.44;107242;1274;22536;-87
2023/11/21 10:11:41;;;;;;;18.40;12.80;;;;;;;7.38;100.00;95933.05;107238;1273;24316;-87
2023/11/21 10:14:12;;;;;;;11.60;8.20;;;;;;;7.36;100.00;95934.10;107201;1275;138155;-87
2023/11/21 10:16:39;;;;;;;41.10;28.40;;;;;;;7.37;100.00;95935.23;107677;1274;25436;-86
2023/11/21 10:19:08;;;;;;;42.10;27.70;;;;;;;7.38;100.00;95933.54;106978;1272;138592;-86
2023/11/21 10:21:34;;;;;;;16.80;11.80;;;;;;;7.39;100.00;95936.81;107262;1273;22649;-86
2023/11/21 10:24:00;;;;;;;15.90;10.10;;;;;;;7.39;100.00;95937.72;107132;1273;139476;-86
2023/11/21 10:26:31;;;;;;;26.00;19.50;;;;;;;7.36;100.00;95939.46;107256;1272;22655;-86
2023/11/21 10:28:58;;;;;;;11.90;8.50;;;;;;;7.32;100.00;95938.48;107076;1275;22606;-86
2023/11/21 10:31:26;;;;;;;21.60;13.40;;;;;;;7.31;100.00;95937.73;107057;1274;137889;-86
2023/11/21 10:33:53;;;;;;;14.80;9.30;;;;;;;7.31;100.00;95935.82;107286;1275;25297;-87
2023/11/21 10:36:27;;;;;;;13.00;7.80;;;;;;;7.32;100.00;95936.95;106951;1276;138521;-86
2023/11/21 10:38:54;;;;;;;11.80;7.10;;;;;;;7.32;100.00;95933.11;107240;1270;22715;-86
2023/11/21 10:41:21;;;;;;;16.10;9.90;;;;;;;7.35;100.00;95932.84;107243;1270;24220;-87
2023/11/21 10:43:47;;;;;;;10.60;7.10;;;;;;;7.39;100.00;95932.23;107106;1273;137780;-86
2023/11/21 10:46:13;;;;;;;14.70;8.50;;;;;;;7.42;100.00;95928.35;107211;1275;22539;-87
2023/11/21 10:48:42;;;;;;;11.00;7.40;;;;;;;7.47;100.00;95927.94;106914;1274;138287;-87
2023/11/21 10:51:09;;;;;;;10.60;7.40;;;;;;;7.51;100.00;95926.61;107243;1269;22564;-86
2023/11/21 10:53:41;;;;;;;10.10;7.40;;;;;;;7.56;100.00;95923.25;107239;1277;24900;-86
2023/11/21 10:56:08;;;;;;;;;;;;;;;7.60;100.00;95924.51;107149;1277;137920;-86
2023/11/21 10:58:34;;;;;;;8.50;6.80;;;;;;;7.61;100.00;95926.23;107410;1276;22578;-87
2023/11/21 11:01:00;;;;;;;12.00;6.70;;;;;;;7.62;100.00;95925.64;107185;1275;137677;-86
2023/11/21 11:03:26;;;;;;;11.10;7.40;;;;;;;7.62;100.00;95921.12;107420;1276;22536;-87
2023/11/21 11:05:52;;;;;;;11.90;6.90;;;;;;;7.62;100.00;95919.95;107188;1277;25351;-86
2023/11/21 11:08:18;;;;;;;9.90;7.30;;;;;;;7.62;100.00;95919.77;107102;1273;137992;-87
2023/11/21 11:10:47;;;;;;;12.90;6.70;;;;;;;7.61;100.00;95918.60;107319;1273;22565;-87
2023/11/21 11:13:15;;;;;;;13.40;8.30;;;;;;;7.60;100.00;95924.27;107235;1276;137967;-87